createdAt,value
2018-12-20T00:00:15.168Z,99505.00
2018-12-20T00:02:50.272Z,99507.00
2018-12-20T00:05:26.595Z,99503.00
2018-12-20T00:08:02.847Z,99510.00
2018-12-20T00:10:37.025Z,99503.00
2018-12-20T00:13:09.704Z,99502.00
2018-12-20T00:15:44.899Z,99494.00
2018-12-20T00:18:15.574Z,99492.00
2018-12-20T00:20:45.690Z,99491.00
2018-12-20T00:23:20.831Z,99490.00
2018-12-20T00:25:54.169Z,99502.00
2018-12-20T00:28:26.632Z,99491.00
2018-12-20T00:30:58.342Z,99495.00
2018-12-20T00:33:31.705Z,99494.00
2018-12-20T00:36:05.886Z,99489.00
2018-12-20T00:38:38.805Z,99497.00
2018-12-20T00:41:13.469Z,99492.00
2018-12-20T00:43:45.473Z,99492.00
2018-12-20T00:46:17.557Z,99493.00
2018-12-20T00:48:47.467Z,99503.00
2018-12-20T00:51:19.809Z,99499.00
2018-12-20T00:53:50.837Z,99497.00
2018-12-20T00:56:22.500Z,99502.00
2018-12-20T00:58:52.846Z,99505.00
2018-12-20T01:01:24.731Z,99500.00
2018-12-20T01:03:56.235Z,99490.00
2018-12-20T01:06:27.082Z,99495.00
2018-12-20T01:08:58.558Z,99499.00
2018-12-20T01:11:35.040Z,99496.00
2018-12-20T01:14:04.911Z,99498.00
2018-12-20T01:16:34.565Z,99507.00
2018-12-20T01:19:05.241Z,99500.00
2018-12-20T01:21:35.107Z,99503.00
2018-12-20T01:24:05.622Z,99505.00
2018-12-20T01:26:37.281Z,99510.00
2018-12-20T01:29:07.128Z,99517.00
2018-12-20T01:31:37.847Z,99510.00
2018-12-20T01:34:09.356Z,99503.00
2018-12-20T01:36:40.225Z,99510.00
2018-12-20T01:39:11.410Z,99501.00
2018-12-20T01:41:43.968Z,99509.00
2018-12-20T01:44:14.734Z,99505.00
2018-12-20T01:46:47.895Z,99498.00
2018-12-20T01:49:23.811Z,99505.00
2018-12-20T01:51:54.852Z,99501.00
2018-12-20T01:54:26.741Z,99501.00
2018-12-20T01:56:58.619Z,99506.00
2018-12-20T01:59:30.101Z,99502.00
2018-12-20T02:02:01.676Z,99505.00
2018-12-20T02:04:31.878Z,99492.00
2018-12-20T02:07:04.484Z,99493.00
2018-12-20T02:09:37.524Z,99494.00
2018-12-20T02:12:11.717Z,99495.00
2018-12-20T02:14:43.356Z,99494.00
2018-12-20T02:17:13.742Z,99495.00
2018-12-20T02:19:45.758Z,99493.00
2018-12-20T02:22:16.973Z,99486.00
2018-12-20T02:24:50.187Z,99486.00
2018-12-20T02:27:20.751Z,99485.00
2018-12-20T02:29:52.179Z,99486.00
2018-12-20T02:32:23.097Z,99485.00
2018-12-20T02:34:55.701Z,99485.00
2018-12-20T02:37:28.640Z,99482.00
2018-12-20T02:40:00.539Z,99479.00
2018-12-20T02:42:30.973Z,99491.00
2018-12-20T02:45:10.731Z,99485.00
2018-12-20T02:47:36.898Z,99485.00
2018-12-20T02:50:07.668Z,99487.00
2018-12-20T02:52:39.000Z,99476.00
2018-12-20T02:55:09.542Z,99468.00
2018-12-20T02:57:42.209Z,99464.00
2018-12-20T03:00:14.031Z,99476.00
2018-12-20T03:02:45.612Z,99482.00
2018-12-20T03:05:17.630Z,99474.00
2018-12-20T03:07:49.666Z,99482.00
2018-12-20T03:10:21.241Z,99479.00
2018-12-20T03:12:51.973Z,99480.00
2018-12-20T03:15:23.133Z,99477.00
2018-12-20T03:17:52.895Z,99476.00
2018-12-20T03:20:23.210Z,99470.00
2018-12-20T03:22:53.234Z,99469.00
2018-12-20T03:25:23.905Z,99470.00
2018-12-20T03:27:54.769Z,99468.00
2018-12-20T03:30:25.391Z,99467.00
2018-12-20T03:32:56.297Z,99480.00
2018-12-20T03:35:28.282Z,99467.00
2018-12-20T03:37:59.756Z,99468.00
2018-12-20T03:40:32.162Z,99465.00
2018-12-20T03:43:03.295Z,99457.00
2018-12-20T03:45:34.641Z,99454.00
2018-12-20T03:48:05.789Z,99446.00
2018-12-20T03:50:40.075Z,99451.00
2018-12-20T03:53:11.325Z,99448.00
2018-12-20T03:55:42.032Z,99459.00
2018-12-20T03:58:12.341Z,99454.00
2018-12-20T04:00:42.547Z,99448.00
2018-12-20T04:03:12.561Z,99459.00
2018-12-20T04:05:42.622Z,99461.00
2018-12-20T04:08:13.343Z,99458.00
2018-12-20T04:10:43.440Z,99455.00
2018-12-20T04:13:13.915Z,99421.00
2018-12-20T04:15:44.062Z,99463.00
2018-12-20T04:18:14.337Z,99467.00
2018-12-20T04:20:45.163Z,99469.00
2018-12-20T04:23:15.857Z,99468.00
2018-12-20T04:25:47.670Z,99476.00
2018-12-20T04:28:17.878Z,99471.00
2018-12-20T04:30:48.324Z,99465.00
2018-12-20T04:33:18.548Z,99460.00
2018-12-20T04:35:50.126Z,99466.00
2018-12-20T04:38:25.849Z,99457.00
2018-12-20T04:40:57.141Z,99462.00
2018-12-20T04:43:29.753Z,99452.00
2018-12-20T04:46:01.045Z,99453.00
2018-12-20T04:48:31.707Z,99457.00
2018-12-20T04:51:04.272Z,99463.00
2018-12-20T04:53:35.239Z,99456.00
2018-12-20T04:56:05.222Z,99460.00
2018-12-20T04:58:35.072Z,99460.00
2018-12-20T05:01:06.191Z,99449.00
2018-12-20T05:03:37.369Z,99461.00
2018-12-20T05:06:08.349Z,99451.00
2018-12-20T05:08:39.820Z,99457.00
2018-12-20T05:11:10.286Z,99461.00
2018-12-20T05:13:40.200Z,99456.00
2018-12-20T05:16:10.324Z,99458.00
2018-12-20T05:18:40.645Z,99458.00
2018-12-20T05:21:12.503Z,99458.00
2018-12-20T05:23:42.936Z,99461.00
2018-12-20T05:26:13.584Z,99452.00
2018-12-20T05:28:45.974Z,99457.00
2018-12-20T05:31:18.129Z,99459.00
2018-12-20T05:33:52.164Z,99465.00
2018-12-20T05:36:24.290Z,99462.00
2018-12-20T05:38:54.628Z,99454.00
2018-12-20T05:41:24.246Z,99454.00
2018-12-20T05:43:54.500Z,99457.00
2018-12-20T05:46:25.020Z,99453.00
2018-12-20T05:48:55.347Z,99454.00
2018-12-20T05:51:26.293Z,99456.00
2018-12-20T05:53:56.217Z,99452.00
2018-12-20T05:56:26.970Z,99448.00
2018-12-20T05:58:56.969Z,99447.00
2018-12-20T06:01:27.220Z,99443.00
2018-12-20T06:04:01.749Z,99449.00
2018-12-20T06:06:32.117Z,99449.00
2018-12-20T06:09:05.186Z,99451.00
2018-12-20T06:11:35.973Z,99447.00
2018-12-20T06:14:06.024Z,99454.00
2018-12-20T06:16:35.964Z,99455.00
2018-12-20T06:19:05.986Z,99452.00
2018-12-20T06:21:36.979Z,99462.00
2018-12-20T06:24:08.443Z,99467.00
2018-12-20T06:26:38.798Z,99467.00
2018-12-20T06:29:09.232Z,99450.00
2018-12-20T06:31:40.484Z,99457.00
2018-12-20T06:34:10.274Z,99457.00
2018-12-20T06:36:40.181Z,99461.00
2018-12-20T06:39:10.110Z,99465.00
2018-12-20T06:41:46.304Z,99459.00
2018-12-20T06:44:16.918Z,99464.00
2018-12-20T06:46:51.245Z,99470.00
2018-12-20T06:49:21.176Z,99457.00
2018-12-20T06:51:51.326Z,99471.00
2018-12-20T06:54:21.332Z,99462.00
2018-12-20T06:56:51.600Z,99460.00
2018-12-20T06:59:21.738Z,99459.00
2018-12-20T07:01:52.672Z,99469.00
2018-12-20T07:04:23.340Z,99466.00
2018-12-20T07:06:53.376Z,99462.00
2018-12-20T07:09:24.692Z,99470.00
2018-12-20T07:11:54.860Z,99469.00
2018-12-20T07:14:26.412Z,99475.00
2018-12-20T07:16:59.479Z,99471.00
2018-12-20T07:19:33.002Z,99475.00
2018-12-20T07:22:03.128Z,99465.00
2018-12-20T07:24:33.987Z,99466.00
2018-12-20T07:27:04.678Z,99468.00
2018-12-20T07:29:34.570Z,99472.00
2018-12-20T07:32:05.291Z,99472.00
2018-12-20T07:34:35.265Z,99476.00
2018-12-20T07:37:05.147Z,99469.00
2018-12-20T07:39:37.085Z,99469.00
2018-12-20T07:42:06.986Z,99470.00
2018-12-20T07:44:37.665Z,99475.00
2018-12-20T07:47:07.738Z,99479.00
2018-12-20T07:49:38.506Z,99473.00
2018-12-20T07:52:08.565Z,99475.00
2018-12-20T07:57:16.956Z,99481.00
2018-12-20T07:59:46.868Z,99479.00
2018-12-20T08:02:16.874Z,99491.00
2018-12-20T08:04:46.617Z,99493.00
2018-12-20T08:07:16.562Z,99496.00
2018-12-20T08:09:46.427Z,99493.00
2018-12-20T08:12:15.897Z,99492.00
2018-12-20T08:14:45.728Z,99494.00
2018-12-20T08:17:15.766Z,99494.00
2018-12-20T08:19:45.620Z,99497.00
2018-12-20T08:22:15.574Z,99495.00
2018-12-20T08:24:45.634Z,99497.00
2018-12-20T08:27:15.975Z,99502.00
2018-12-20T08:29:47.327Z,99497.00
2018-12-20T08:32:17.114Z,99507.00
2018-12-20T08:34:46.788Z,99501.00
2018-12-20T08:37:16.555Z,99508.00
2018-12-20T08:39:46.389Z,99500.00
2018-12-20T08:42:16.222Z,99505.00
2018-12-20T08:44:46.037Z,99507.00
2018-12-20T08:47:16.593Z,99493.00
2018-12-20T08:49:46.684Z,99504.00
2018-12-20T08:52:16.687Z,99502.00
2018-12-20T08:54:48.613Z,99506.00
2018-12-20T08:57:18.560Z,99512.00
2018-12-20T08:59:48.431Z,99515.00
2018-12-20T09:02:18.389Z,99512.00
2018-12-20T09:04:48.046Z,99522.00
2018-12-20T09:07:18.207Z,99512.00
2018-12-20T09:09:47.828Z,99517.00
2018-12-20T09:12:17.694Z,99506.00
2018-12-20T09:14:47.989Z,99515.00
2018-12-20T09:17:17.735Z,99519.00
2018-12-20T09:19:54.011Z,99515.00
2018-12-20T09:22:23.627Z,99515.00
2018-12-20T09:24:53.461Z,99512.00
2018-12-20T09:27:23.248Z,99515.00
2018-12-20T09:29:53.758Z,99514.00
2018-12-20T09:32:23.567Z,99510.00
2018-12-20T09:34:53.262Z,99512.00
2018-12-20T09:37:23.138Z,99503.00
2018-12-20T09:39:52.889Z,99506.00
2018-12-20T09:42:22.690Z,99500.00
2018-12-20T09:44:52.313Z,99490.00
2018-12-20T09:47:27.379Z,99483.00
2018-12-20T09:49:56.974Z,99504.00
2018-12-20T09:52:27.828Z,99494.00
2018-12-20T09:54:57.806Z,99499.00
2018-12-20T09:57:27.612Z,99492.00
2018-12-20T09:59:57.225Z,99486.00
2018-12-20T10:02:27.128Z,99477.00
2018-12-20T10:04:57.775Z,99480.00
2018-12-20T10:07:28.473Z,99476.00
2018-12-20T10:09:58.202Z,99484.00
2018-12-20T10:12:28.084Z,99486.00
2018-12-20T10:14:57.711Z,99477.00
2018-12-20T10:17:28.222Z,99474.00
2018-12-20T10:19:57.986Z,99477.00
2018-12-20T10:22:27.873Z,99475.00
2018-12-20T10:24:57.563Z,99482.00
2018-12-20T10:27:31.381Z,99468.00
2018-12-20T10:29:59.367Z,99467.00
2018-12-20T10:32:29.208Z,99468.00
2018-12-20T10:35:00.615Z,99466.00
2018-12-20T10:37:30.527Z,99464.00
2018-12-20T10:40:00.426Z,99458.00
2018-12-20T10:42:30.869Z,99458.00
2018-12-20T10:45:00.618Z,99450.00
2018-12-20T10:47:30.301Z,99442.00
2018-12-20T10:50:00.218Z,99451.00
2018-12-20T10:52:30.024Z,99447.00
2018-12-20T10:54:59.623Z,99440.00
2018-12-20T10:57:29.616Z,99441.00
2018-12-20T10:59:59.822Z,99440.00
2018-12-20T11:02:34.620Z,99439.00
2018-12-20T11:05:08.609Z,99439.00
2018-12-20T11:07:43.763Z,99441.00
2018-12-20T11:10:18.763Z,99443.00
2018-12-20T11:12:49.243Z,99442.00
2018-12-20T11:15:19.067Z,99434.00
2018-12-20T11:17:51.811Z,99435.00
2018-12-20T11:20:21.658Z,99434.00
2018-12-20T11:22:51.727Z,99430.00
2018-12-20T11:25:22.457Z,99419.00
2018-12-20T11:27:53.394Z,99418.00
2018-12-20T11:30:24.436Z,99426.00
2018-12-20T11:32:54.677Z,99418.00
2018-12-20T11:35:24.310Z,99417.00
2018-12-20T11:37:54.205Z,99409.00
2018-12-20T11:40:24.787Z,99408.00
2018-12-20T11:42:54.509Z,99407.00
2018-12-20T11:45:25.160Z,99406.00
2018-12-20T11:47:57.368Z,99400.00
2018-12-20T11:50:29.367Z,99395.00
2018-12-20T11:52:59.159Z,99408.00
2018-12-20T11:55:29.903Z,99405.00
2018-12-20T11:58:01.108Z,99410.00
2018-12-20T12:00:33.207Z,99412.00
2018-12-20T12:03:04.249Z,99405.00
2018-12-20T12:08:13.930Z,99413.00
2018-12-20T12:10:44.093Z,99414.00
2018-12-20T12:13:18.650Z,99406.00
2018-12-20T12:15:48.458Z,99410.00
2018-12-20T12:18:21.288Z,99418.00
2018-12-20T12:20:51.468Z,99420.00
2018-12-20T12:23:23.146Z,99422.00
2018-12-20T12:25:53.067Z,99413.00
2018-12-20T12:28:22.984Z,99412.00
2018-12-20T12:30:53.139Z,99416.00
2018-12-20T12:33:22.883Z,99418.00
2018-12-20T12:35:52.889Z,99422.00
2018-12-20T12:38:23.028Z,99415.00
2018-12-20T12:40:52.567Z,99410.00
2018-12-20T12:43:22.615Z,99413.00
2018-12-20T12:45:53.805Z,99416.00
2018-12-20T12:48:24.314Z,99415.00
2018-12-20T12:50:54.154Z,99410.00
2018-12-20T12:53:24.234Z,99413.00
2018-12-20T12:55:54.325Z,99421.00
2018-12-20T12:58:25.263Z,99410.00
2018-12-20T13:00:54.920Z,99422.00
2018-12-20T13:03:24.687Z,99421.00
2018-12-20T13:05:55.777Z,99419.00
2018-12-20T13:08:25.730Z,99409.00
2018-12-20T13:10:55.698Z,99410.00
2018-12-20T13:13:25.650Z,99413.00
2018-12-20T13:15:56.610Z,99411.00
2018-12-20T13:18:27.947Z,99415.00
2018-12-20T13:20:57.951Z,99418.00
2018-12-20T13:23:27.651Z,99425.00
2018-12-20T13:25:58.093Z,99415.00
2018-12-20T13:28:28.121Z,99421.00
2018-12-20T13:30:58.184Z,99417.00
2018-12-20T13:33:30.030Z,99414.00
2018-12-20T13:35:59.887Z,99407.00
2018-12-20T13:38:29.413Z,99423.00
2018-12-20T13:40:58.883Z,99422.00
2018-12-20T13:43:28.767Z,99425.00
2018-12-20T13:45:59.445Z,99424.00
2018-12-20T13:48:30.064Z,99424.00
2018-12-20T13:50:59.947Z,99435.00
2018-12-20T13:53:30.955Z,99434.00
2018-12-20T13:56:01.156Z,99432.00
2018-12-20T13:58:30.680Z,99439.00
2018-12-20T14:01:00.598Z,99428.00
2018-12-20T14:03:31.289Z,99433.00
2018-12-20T14:06:01.082Z,99433.00
2018-12-20T14:08:30.837Z,99443.00
2018-12-20T14:11:00.429Z,99434.00
2018-12-20T14:13:31.084Z,99431.00
2018-12-20T14:16:01.845Z,99442.00
2018-12-20T14:18:32.150Z,99438.00
2018-12-20T14:21:01.869Z,99439.00
2018-12-20T14:23:31.426Z,99443.00
2018-12-20T14:26:01.465Z,99445.00
2018-12-20T14:28:31.091Z,99443.00
2018-12-20T14:31:00.902Z,99440.00
2018-12-20T14:33:32.748Z,99445.00
2018-12-20T14:36:02.883Z,99441.00
2018-12-20T14:38:32.771Z,99444.00
2018-12-20T14:41:03.173Z,99446.00
2018-12-20T14:43:32.910Z,99443.00
2018-12-20T14:46:02.941Z,99449.00
2018-12-20T14:48:39.171Z,99453.00
2018-12-20T14:51:05.114Z,99454.00
2018-12-20T14:53:35.053Z,99459.00
2018-12-20T14:56:05.613Z,99450.00
2018-12-20T14:58:39.639Z,99454.00
2018-12-20T15:01:15.658Z,99457.00
2018-12-20T15:03:47.919Z,99459.00
2018-12-20T15:06:21.013Z,99460.00
2018-12-20T15:08:54.127Z,99458.00
2018-12-20T15:11:29.994Z,99460.00
2018-12-20T15:14:01.139Z,99459.00
2018-12-20T15:16:31.955Z,99465.00
2018-12-20T15:19:02.740Z,99461.00
2018-12-20T15:21:33.000Z,99461.00
2018-12-20T15:24:03.583Z,99465.00
2018-12-20T15:26:33.365Z,99467.00
2018-12-20T15:29:04.581Z,99466.00
2018-12-20T15:31:35.807Z,99456.00
2018-12-20T15:34:05.625Z,99479.00
2018-12-20T15:36:35.854Z,99473.00
2018-12-20T15:39:08.102Z,99480.00
2018-12-20T15:41:42.980Z,99477.00
2018-12-20T15:44:13.671Z,99476.00
2018-12-20T15:46:45.844Z,99486.00
2018-12-20T15:49:18.090Z,99484.00
2018-12-20T15:51:50.792Z,99480.00
2018-12-20T15:54:23.830Z,99474.00
2018-12-20T15:56:55.215Z,99484.00
2018-12-20T15:59:27.749Z,99485.00
2018-12-20T16:01:58.964Z,99487.00
2018-12-20T16:04:30.488Z,99485.00
2018-12-20T16:07:03.954Z,99490.00
2018-12-20T16:09:34.955Z,99485.00
2018-12-20T16:12:06.813Z,99495.00
2018-12-20T16:14:39.062Z,99486.00
2018-12-20T16:17:13.998Z,99487.00
2018-12-20T16:19:45.929Z,99488.00
2018-12-20T16:22:20.345Z,99489.00
2018-12-20T16:24:52.479Z,99495.00
2018-12-20T16:27:26.898Z,99490.00
2018-12-20T16:30:00.486Z,99496.00
2018-12-20T16:32:33.556Z,99491.00
2018-12-20T16:35:04.910Z,99492.00
2018-12-20T16:37:37.963Z,99494.00
2018-12-20T16:40:13.592Z,99493.00
2018-12-20T16:42:48.116Z,99494.00
2018-12-20T16:45:20.611Z,99497.00
2018-12-20T16:47:52.703Z,99493.00
2018-12-20T16:50:24.671Z,99492.00
2018-12-20T16:52:56.012Z,99496.00
2018-12-20T16:55:28.523Z,99497.00
2018-12-20T16:58:01.486Z,99502.00
2018-12-20T17:00:33.119Z,99505.00
2018-12-20T17:03:06.340Z,99503.00
2018-12-20T17:05:37.933Z,99504.00
2018-12-20T17:08:09.149Z,99496.00
2018-12-20T17:10:39.617Z,99501.00
2018-12-20T17:13:09.799Z,99500.00
2018-12-20T17:15:39.653Z,99486.00
2018-12-20T17:18:09.708Z,99489.00
2018-12-20T17:20:40.017Z,99501.00
2018-12-20T17:23:10.621Z,99494.00
2018-12-20T17:25:41.286Z,99496.00
2018-12-20T17:28:16.505Z,99494.00
2018-12-20T17:30:48.860Z,99498.00
2018-12-20T17:33:19.156Z,99502.00
2018-12-20T17:35:49.949Z,99497.00
2018-12-20T17:38:22.102Z,99512.00
2018-12-20T17:40:55.082Z,99509.00
2018-12-20T17:43:27.605Z,99509.00
2018-12-20T17:45:58.593Z,99522.00
2018-12-20T17:48:31.324Z,99510.00
2018-12-20T17:51:03.490Z,99510.00
2018-12-20T17:53:33.012Z,99503.00
2018-12-20T17:56:02.888Z,99508.00
2018-12-20T17:58:32.557Z,99521.00
2018-12-20T18:01:02.367Z,99513.00
2018-12-20T18:03:32.730Z,99506.00
2018-12-20T18:06:02.326Z,99505.00
2018-12-20T18:08:31.991Z,99510.00
2018-12-20T18:11:01.778Z,99502.00
2018-12-20T18:13:31.276Z,99512.00
2018-12-20T18:16:01.666Z,99511.00
2018-12-20T18:18:31.147Z,99508.00
2018-12-20T18:21:00.880Z,99509.00
2018-12-20T18:23:30.421Z,99512.00
2018-12-20T18:25:59.851Z,99519.00
2018-12-20T18:28:29.302Z,99518.00
2018-12-20T18:30:59.304Z,99515.00
2018-12-20T18:33:28.771Z,99510.00
2018-12-20T18:35:58.202Z,99521.00
2018-12-20T18:38:27.672Z,99521.00
2018-12-20T18:40:57.186Z,99513.00
2018-12-20T18:43:27.611Z,99518.00
2018-12-20T18:45:57.117Z,99522.00
2018-12-20T18:48:26.628Z,99528.00
2018-12-20T18:50:57.161Z,99521.00
2018-12-20T18:53:27.007Z,99523.00
2018-12-20T18:55:56.707Z,99526.00
2018-12-20T18:58:26.280Z,99529.00
2018-12-20T19:00:55.835Z,99527.00
2018-12-20T19:03:25.340Z,99532.00
2018-12-20T19:05:55.035Z,99525.00
2018-12-20T19:08:24.563Z,99535.00
2018-12-20T19:10:54.304Z,99526.00
2018-12-20T19:13:23.998Z,99529.00
2018-12-20T19:15:53.496Z,99520.00
2018-12-20T19:18:23.122Z,99522.00
2018-12-20T19:20:52.744Z,99528.00
2018-12-20T19:23:22.226Z,99524.00
2018-12-20T19:25:52.856Z,99523.00
2018-12-20T19:28:22.416Z,99518.00
2018-12-20T19:30:52.035Z,99532.00
2018-12-20T19:33:21.564Z,99537.00
2018-12-20T19:35:51.168Z,99532.00
2018-12-20T19:38:20.868Z,99525.00
2018-12-20T19:40:52.438Z,99526.00
2018-12-20T19:43:23.742Z,99529.00
2018-12-20T19:45:53.476Z,99529.00
2018-12-20T19:48:23.215Z,99536.00
2018-12-20T19:50:53.268Z,99526.00
2018-12-20T19:53:23.417Z,99526.00
2018-12-20T19:55:54.119Z,99541.00
2018-12-20T19:58:25.255Z,99534.00
2018-12-20T20:00:55.595Z,99535.00
2018-12-20T20:03:27.111Z,99539.00
2018-12-20T20:05:58.068Z,99544.00
2018-12-20T20:08:27.895Z,99542.00
2018-12-20T20:10:58.420Z,99543.00
2018-12-20T20:13:30.885Z,99544.00
2018-12-20T20:16:00.665Z,99546.00
2018-12-20T20:18:30.499Z,99542.00
2018-12-20T20:21:01.969Z,99543.00
2018-12-20T20:23:31.884Z,99542.00
2018-12-20T20:26:02.227Z,99538.00
2018-12-20T20:28:34.015Z,99534.00
2018-12-20T20:31:07.134Z,99535.00
2018-12-20T20:33:40.058Z,99541.00
2018-12-20T20:36:13.707Z,99541.00
2018-12-20T20:38:48.245Z,99539.00
2018-12-20T20:41:20.390Z,99542.00
2018-12-20T20:43:55.522Z,99539.00
2018-12-20T20:46:30.085Z,99547.00
2018-12-20T20:49:04.115Z,99544.00
2018-12-20T20:51:35.016Z,99540.00
2018-12-20T20:54:06.740Z,99524.00
2018-12-20T20:56:37.477Z,99541.00
2018-12-20T20:59:08.044Z,99543.00
2018-12-20T21:01:38.551Z,99538.00
2018-12-20T21:04:09.448Z,99542.00
2018-12-20T21:06:46.984Z,99540.00
2018-12-20T21:09:13.433Z,99536.00
2018-12-20T21:11:45.031Z,99536.00
2018-12-20T21:14:16.256Z,99544.00
2018-12-20T21:16:50.223Z,99543.00
2018-12-20T21:19:23.385Z,99547.00
2018-12-20T21:21:54.154Z,99547.00
2018-12-20T21:24:28.188Z,99550.00
2018-12-20T21:27:00.872Z,99538.00
2018-12-20T21:29:35.048Z,99542.00
2018-12-20T21:32:07.174Z,99541.00
2018-12-20T21:34:39.838Z,99547.00
2018-12-20T21:37:10.268Z,99548.00
2018-12-20T21:39:42.754Z,99543.00
2018-12-20T21:42:13.060Z,99554.00
2018-12-20T21:44:45.798Z,99550.00
2018-12-20T21:47:16.478Z,99556.00
2018-12-20T21:49:47.211Z,99543.00
2018-12-20T21:52:18.647Z,99556.00
2018-12-20T21:54:50.073Z,99561.00
2018-12-20T21:57:21.766Z,99553.00
2018-12-20T22:00:01.042Z,99548.00
2018-12-20T22:02:26.795Z,99555.00
2018-12-20T22:04:57.678Z,99555.00
2018-12-20T22:07:29.145Z,99560.00
2018-12-20T22:10:00.900Z,99564.00
2018-12-20T22:12:31.448Z,99567.00
2018-12-20T22:15:04.563Z,99562.00
2018-12-20T22:17:36.794Z,99566.00
2018-12-20T22:20:08.742Z,99573.00
2018-12-20T22:22:42.371Z,99566.00
2018-12-20T22:25:13.205Z,99572.00
2018-12-20T22:27:46.758Z,99570.00
2018-12-20T22:30:20.489Z,99560.00
2018-12-20T22:32:51.866Z,99555.00
2018-12-20T22:35:22.712Z,99554.00
2018-12-20T22:37:53.979Z,99552.00
2018-12-20T22:40:26.790Z,99550.00
2018-12-20T22:42:59.344Z,99548.00
2018-12-20T22:45:31.787Z,99547.00
2018-12-20T22:48:01.924Z,99530.00
2018-12-20T22:50:33.046Z,99540.00
2018-12-20T22:53:03.918Z,99534.00
2018-12-20T22:55:34.510Z,99531.00
2018-12-20T22:58:05.492Z,99526.00
2018-12-20T23:00:38.588Z,99525.00
2018-12-20T23:03:09.985Z,99518.00
2018-12-20T23:05:42.082Z,99514.00
2018-12-20T23:08:13.743Z,99510.00
2018-12-20T23:10:46.446Z,99516.00
2018-12-20T23:13:18.182Z,99517.00
2018-12-20T23:15:48.992Z,99514.00
2018-12-20T23:18:20.910Z,99514.00
2018-12-20T23:20:52.001Z,99517.00
2018-12-20T23:23:23.230Z,99526.00
2018-12-20T23:25:53.681Z,99519.00
2018-12-20T23:28:25.029Z,99520.00
2018-12-20T23:30:55.876Z,99521.00
2018-12-20T23:33:26.799Z,99519.00
2018-12-20T23:35:59.061Z,99517.00
2018-12-20T23:38:31.672Z,99515.00
2018-12-20T23:41:03.539Z,99520.00
2018-12-20T23:43:34.046Z,99529.00
2018-12-20T23:46:05.940Z,99527.00
2018-12-20T23:48:39.222Z,99514.00
2018-12-20T23:51:13.773Z,99507.00
2018-12-20T23:53:47.291Z,99514.00
2018-12-20T23:56:20.151Z,99505.00
2018-12-20T23:58:52.271Z,99498.00
